sensor_id;sensor_type;location;lat;lon;timestamp;P1;durP1;ratioP1;P2;durP2;ratioP2
20857;SDS011;10589;53.636;10.012;2023-07-16T03:46:18;3.92;;;1.73;;
20857;SDS011;10589;53.636;10.012;2023-07-16T03:48:43;3.78;;;1.77;;
20857;SDS011;10589;53.636;10.012;2023-07-16T03:51:09;2.78;;;1.70;;
20857;SDS011;10589;53.636;10.012;2023-07-16T03:53:35;4.65;;;1.70;;
20857;SDS011;10589;53.636;10.012;2023-07-16T03:56:00;4.38;;;1.90;;
20857;SDS011;10589;53.636;10.012;2023-07-16T03:58:26;5.65;;;1.70;;
20857;SDS011;10589;53.636;10.012;2023-07-16T04:00:54;3.28;;;1.83;;
20857;SDS011;10589;53.636;10.012;2023-07-16T04:03:19;4.07;;;1.83;;
20857;SDS011;10589;53.636;10.012;2023-07-16T04:05:45;4.25;;;1.90;;
20857;SDS011;10589;53.636;10.012;2023-07-16T04:08:11;3.85;;;1.73;;
20857;SDS011;10589;53.636;10.012;2023-07-16T04:10:36;5.03;;;2.05;;
20857;SDS011;10589;53.636;10.012;2023-07-16T04:13:02;3.88;;;1.80;;
20857;SDS011;10589;53.636;10.012;2023-07-16T04:15:29;3.88;;;1.90;;
20857;SDS011;10589;53.636;10.012;2023-07-16T04:17:54;4.13;;;1.75;;
20857;SDS011;10589;53.636;10.012;2023-07-16T04:20:20;3.42;;;1.52;;
20857;SDS011;10589;53.636;10.012;2023-07-16T04:22:45;5.55;;;1.88;;
20857;SDS011;10589;53.636;10.012;2023-07-16T04:25:11;4.70;;;1.88;;
20857;SDS011;10589;53.636;10.012;2023-07-16T04:27:37;5.63;;;1.98;;
20857;SDS011;10589;53.636;10.012;2023-07-16T04:30:03;3.90;;;1.90;;
20857;SDS011;10589;53.636;10.012;2023-07-16T04:32:28;5.50;;;2.30;;
20857;SDS011;10589;53.636;10.012;2023-07-16T04:34:54;4.43;;;2.30;;
20857;SDS011;10589;53.636;10.012;2023-07-16T04:37:19;4.72;;;2.20;;
20857;SDS011;10589;53.636;10.012;2023-07-16T04:39:45;5.05;;;2.15;;
20857;SDS011;10589;53.636;10.012;2023-07-16T04:42:11;4.03;;;1.90;;
20857;SDS011;10589;53.636;10.012;2023-07-16T04:44:37;3.53;;;1.83;;
20857;SDS011;10589;53.636;10.012;2023-07-16T04:47:02;4.90;;;1.80;;
20857;SDS011;10589;53.636;10.012;2023-07-16T04:49:28;6.35;;;2.40;;
20857;SDS011;10589;53.636;10.012;2023-07-16T04:51:54;6.15;;;1.90;;
20857;SDS011;10589;53.636;10.012;2023-07-16T04:54:19;2.90;;;1.77;;
20857;SDS011;10589;53.636;10.012;2023-07-16T04:56:45;4.85;;;1.70;;
20857;SDS011;10589;53.636;10.012;2023-07-16T04:59:10;2.92;;;1.40;;
20857;SDS011;10589;53.636;10.012;2023-07-16T05:01:36;4.53;;;1.40;;
20857;SDS011;10589;53.636;10.012;2023-07-16T05:04:01;4.05;;;1.30;;
20857;SDS011;10589;53.636;10.012;2023-07-16T05:06:27;6.80;;;1.52;;
20857;SDS011;10589;53.636;10.012;2023-07-16T05:08:53;5.00;;;1.42;;
20857;SDS011;10589;53.636;10.012;2023-07-16T05:11:19;5.20;;;2.00;;
20857;SDS011;10589;53.636;10.012;2023-07-16T05:13:44;2.97;;;1.40;;
20857;SDS011;10589;53.636;10.012;2023-07-16T05:16:10;3.80;;;1.40;;
20857;SDS011;10589;53.636;10.012;2023-07-16T05:18:35;5.32;;;1.70;;
20857;SDS011;10589;53.636;10.012;2023-07-16T05:21:01;3.20;;;1.38;;
20857;SDS011;10589;53.636;10.012;2023-07-16T05:23:26;3.40;;;1.42;;
20857;SDS011;10589;53.636;10.012;2023-07-16T05:25:52;4.32;;;1.70;;
20857;SDS011;10589;53.636;10.012;2023-07-16T05:28:18;3.58;;;1.60;;
20857;SDS011;10589;53.636;10.012;2023-07-16T05:30:44;3.58;;;1.55;;
20857;SDS011;10589;53.636;10.012;2023-07-16T05:33:10;4.07;;;1.58;;
20857;SDS011;10589;53.636;10.012;2023-07-16T05:35:36;4.97;;;1.60;;
20857;SDS011;10589;53.636;10.012;2023-07-16T05:38:02;4.78;;;1.58;;
20857;SDS011;10589;53.636;10.012;2023-07-16T05:40:27;2.67;;;1.50;;
20857;SDS011;10589;53.636;10.012;2023-07-16T05:42:54;5.05;;;1.75;;
20857;SDS011;10589;53.636;10.012;2023-07-16T05:45:19;3.08;;;1.40;;
20857;SDS011;10589;53.636;10.012;2023-07-16T05:47:45;4.07;;;1.58;;
20857;SDS011;10589;53.636;10.012;2023-07-16T05:50:10;5.35;;;1.42;;
20857;SDS011;10589;53.636;10.012;2023-07-16T05:52:36;5.93;;;1.63;;
20857;SDS011;10589;53.636;10.012;2023-07-16T05:55:02;3.00;;;1.50;;
20857;SDS011;10589;53.636;10.012;2023-07-16T05:57:28;4.07;;;1.55;;
20857;SDS011;10589;53.636;10.012;2023-07-16T05:59:53;4.78;;;1.58;;
20857;SDS011;10589;53.636;10.012;2023-07-16T06:02:19;4.53;;;1.33;;
20857;SDS011;10589;53.636;10.012;2023-07-16T06:04:44;3.28;;;1.50;;
20857;SDS011;10589;53.636;10.012;2023-07-16T06:07:10;5.60;;;1.45;;
20857;SDS011;10589;53.636;10.012;2023-07-16T06:09:37;5.20;;;1.58;;
20857;SDS011;10589;53.636;10.012;2023-07-16T06:12:02;3.40;;;1.58;;
20857;SDS011;10589;53.636;10.012;2023-07-16T06:14:28;4.10;;;1.60;;
20857;SDS011;10589;53.636;10.012;2023-07-16T06:16:54;6.10;;;1.73;;
20857;SDS011;10589;53.636;10.012;2023-07-16T06:19:19;5.72;;;1.90;;
20857;SDS011;10589;53.636;10.012;2023-07-16T06:21:45;7.50;;;1.50;;
20857;SDS011;10589;53.636;10.012;2023-07-16T06:24:11;5.57;;;1.75;;
20857;SDS011;10589;53.636;10.012;2023-07-16T06:26:36;6.30;;;2.00;;
20857;SDS011;10589;53.636;10.012;2023-07-16T06:29:02;7.93;;;2.00;;
20857;SDS011;10589;53.636;10.012;2023-07-16T06:31:27;4.93;;;1.60;;
20857;SDS011;10589;53.636;10.012;2023-07-16T06:33:53;6.93;;;1.65;;
20857;SDS011;10589;53.636;10.012;2023-07-16T06:36:18;6.32;;;1.67;;
20857;SDS011;10589;53.636;10.012;2023-07-16T06:38:45;7.47;;;2.03;;
20857;SDS011;10589;53.636;10.012;2023-07-16T06:41:11;6.47;;;1.63;;
20857;SDS011;10589;53.636;10.012;2023-07-16T06:43:36;3.88;;;1.90;;
20857;SDS011;10589;53.636;10.012;2023-07-16T06:46:02;6.15;;;2.22;;
20857;SDS011;10589;53.636;10.012;2023-07-16T06:48:28;9.48;;;2.58;;
20857;SDS011;10589;53.636;10.012;2023-07-16T06:50:54;8.48;;;2.22;;
20857;SDS011;10589;53.636;10.012;2023-07-16T06:53:19;5.28;;;2.15;;
20857;SDS011;10589;53.636;10.012;2023-07-16T06:55:47;4.03;;;2.15;;
20857;SDS011;10589;53.636;10.012;2023-07-16T06:58:13;6.93;;;2.42;;
20857;SDS011;10589;53.636;10.012;2023-07-16T07:00:40;8.95;;;2.45;;
20857;SDS011;10589;53.636;10.012;2023-07-16T07:03:06;5.03;;;2.13;;
20857;SDS011;10589;53.636;10.012;2023-07-16T07:05:32;7.45;;;2.28;;
20857;SDS011;10589;53.636;10.012;2023-07-16T07:07:58;6.88;;;2.10;;
20857;SDS011;10589;53.636;10.012;2023-07-16T07:10:23;10.98;;;2.40;;
20857;SDS011;10589;53.636;10.012;2023-07-16T07:12:49;5.18;;;2.13;;
20857;SDS011;10589;53.636;10.012;2023-07-16T07:15:15;7.47;;;2.10;;
20857;SDS011;10589;53.636;10.012;2023-07-16T07:17:41;8.27;;;2.35;;
20857;SDS011;10589;53.636;10.012;2023-07-16T07:20:07;3.92;;;2.20;;
20857;SDS011;10589;53.636;10.012;2023-07-16T07:22:34;11.13;;;2.50;;
20857;SDS011;10589;53.636;10.012;2023-07-16T07:25:00;9.27;;;2.47;;
20857;SDS011;10589;53.636;10.012;2023-07-16T07:27:26;8.43;;;2.63;;
20857;SDS011;10589;53.636;10.012;2023-07-16T07:29:52;9.18;;;2.22;;
20857;SDS011;10589;53.636;10.012;2023-07-16T07:32:20;6.75;;;2.33;;
20857;SDS011;10589;53.636;10.012;2023-07-16T07:34:47;6.07;;;2.50;;
20857;SDS011;10589;53.636;10.012;2023-07-16T07:37:13;6.82;;;2.13;;
20857;SDS011;10589;53.636;10.012;2023-07-16T07:39:39;9.82;;;2.83;;
20857;SDS011;10589;53.636;10.012;2023-07-16T07:42:04;5.97;;;2.15;;
20857;SDS011;10589;53.636;10.012;2023-07-16T07:44:30;6.32;;;2.40;;
20857;SDS011;10589;53.636;10.012;2023-07-16T07:46:56;6.82;;;2.20;;
20857;SDS011;10589;53.636;10.012;2023-07-16T07:49:22;8.25;;;2.55;;
20857;SDS011;10589;53.636;10.012;2023-07-16T07:51:47;5.75;;;2.30;;
20857;SDS011;10589;53.636;10.012;2023-07-16T07:54:14;8.65;;;2.55;;
20857;SDS011;10589;53.636;10.012;2023-07-16T07:56:40;5.93;;;1.90;;
20857;SDS011;10589;53.636;10.012;2023-07-16T07:59:05;7.35;;;2.10;;
20857;SDS011;10589;53.636;10.012;2023-07-16T08:01:31;3.78;;;1.90;;
20857;SDS011;10589;53.636;10.012;2023-07-16T08:03:57;7.65;;;1.85;;
20857;SDS011;10589;53.636;10.012;2023-07-16T08:06:25;5.47;;;1.90;;
20857;SDS011;10589;53.636;10.012;2023-07-16T08:08:51;6.80;;;2.00;;
20857;SDS011;10589;53.636;10.012;2023-07-16T08:11:16;5.63;;;1.83;;
20857;SDS011;10589;53.636;10.012;2023-07-16T08:13:42;5.60;;;1.77;;
20857;SDS011;10589;53.636;10.012;2023-07-16T08:16:08;5.90;;;1.80;;
20857;SDS011;10589;53.636;10.012;2023-07-16T08:18:34;5.40;;;1.65;;
20857;SDS011;10589;53.636;10.012;2023-07-16T08:21:00;6.65;;;1.88;;
20857;SDS011;10589;53.636;10.012;2023-07-16T08:23:25;6.38;;;1.65;;
20857;SDS011;10589;53.636;10.012;2023-07-16T08:25:51;5.72;;;2.00;;
20857;SDS011;10589;53.636;10.012;2023-07-16T08:28:16;5.82;;;1.63;;
20857;SDS011;10589;53.636;10.012;2023-07-16T08:30:42;5.72;;;1.60;;
20857;SDS011;10589;53.636;10.012;2023-07-16T08:33:11;7.13;;;1.90;;
20857;SDS011;10589;53.636;10.012;2023-07-16T08:35:37;6.30;;;1.70;;
20857;SDS011;10589;53.636;10.012;2023-07-16T08:38:04;4.97;;;1.50;;
20857;SDS011;10589;53.636;10.012;2023-07-16T08:40:29;6.47;;;1.70;;
20857;SDS011;10589;53.636;10.012;2023-07-16T08:42:56;6.20;;;1.75;;
20857;SDS011;10589;53.636;10.012;2023-07-16T08:45:22;8.27;;;1.70;;
20857;SDS011;10589;53.636;10.012;2023-07-16T08:47:50;6.93;;;2.30;;
20857;SDS011;10589;53.636;10.012;2023-07-16T08:50:16;4.93;;;1.67;;
20857;SDS011;10589;53.636;10.012;2023-07-16T08:52:43;3.90;;;1.70;;
20857;SDS011;10589;53.636;10.012;2023-07-16T08:55:10;5.18;;;2.00;;
20857;SDS011;10589;53.636;10.012;2023-07-16T08:57:39;7.03;;;1.95;;
20857;SDS011;10589;53.636;10.012;2023-07-16T09:00:06;5.22;;;1.98;;
20857;SDS011;10589;53.636;10.012;2023-07-16T09:02:32;7.05;;;2.63;;
20857;SDS011;10589;53.636;10.012;2023-07-16T09:04:58;7.85;;;2.60;;
20857;SDS011;10589;53.636;10.012;2023-07-16T09:07:24;6.30;;;2.60;;
20857;SDS011;10589;53.636;10.012;2023-07-16T09:09:59;5.85;;;2.33;;
20857;SDS011;10589;53.636;10.012;2023-07-16T09:12:25;3.72;;;2.28;;
20857;SDS011;10589;53.636;10.012;2023-07-16T09:14:51;6.70;;;2.65;;
20857;SDS011;10589;53.636;10.012;2023-07-16T09:17:21;7.20;;;2.70;;
20857;SDS011;10589;53.636;10.012;2023-07-16T09:19:48;5.55;;;2.55;;
20857;SDS011;10589;53.636;10.012;2023-07-16T09:22:13;6.85;;;2.70;;
20857;SDS011;10589;53.636;10.012;2023-07-16T09:24:46;6.75;;;3.00;;
20857;SDS011;10589;53.636;10.012;2023-07-16T09:27:12;4.32;;;2.65;;
20857;SDS011;10589;53.636;10.012;2023-07-16T09:29:38;5.82;;;2.45;;
20857;SDS011;10589;53.636;10.012;2023-07-16T09:32:04;4.80;;;2.90;;
20857;SDS011;10589;53.636;10.012;2023-07-16T09:34:30;8.18;;;2.70;;
20857;SDS011;10589;53.636;10.012;2023-07-16T09:36:59;4.53;;;2.83;;
20857;SDS011;10589;53.636;10.012;2023-07-16T09:39:27;4.78;;;2.92;;
20857;SDS011;10589;53.636;10.012;2023-07-16T09:41:53;7.25;;;2.85;;
20857;SDS011;10589;53.636;10.012;2023-07-16T09:44:21;4.72;;;2.50;;
20857;SDS011;10589;53.636;10.012;2023-07-16T09:46:47;6.75;;;2.53;;
20857;SDS011;10589;53.636;10.012;2023-07-16T09:49:14;6.13;;;2.60;;
20857;SDS011;10589;53.636;10.012;2023-07-16T09:51:40;6.25;;;2.80;;
20857;SDS011;10589;53.636;10.012;2023-07-16T09:54:08;10.35;;;3.03;;
20857;SDS011;10589;53.636;10.012;2023-07-16T09:56:44;7.50;;;2.63;;
20857;SDS011;10589;53.636;10.012;2023-07-16T09:59:15;3.65;;;2.33;;
20857;SDS011;10589;53.636;10.012;2023-07-16T10:01:42;6.28;;;2.70;;
20857;SDS011;10589;53.636;10.012;2023-07-16T10:04:18;10.18;;;3.13;;
20857;SDS011;10589;53.636;10.012;2023-07-16T10:06:54;8.95;;;3.25;;
20857;SDS011;10589;53.636;10.012;2023-07-16T10:12:16;5.50;;;2.85;;
20857;SDS011;10589;53.636;10.012;2023-07-16T10:14:47;12.45;;;3.00;;
20857;SDS011;10589;53.636;10.012;2023-07-16T10:17:23;5.30;;;2.35;;
20857;SDS011;10589;53.636;10.012;2023-07-16T10:19:50;7.30;;;2.83;;
20857;SDS011;10589;53.636;10.012;2023-07-16T10:22:38;3.45;;;2.28;;
20857;SDS011;10589;53.636;10.012;2023-07-16T10:25:07;8.98;;;2.60;;
20857;SDS011;10589;53.636;10.012;2023-07-16T10:27:43;5.85;;;2.90;;
20857;SDS011;10589;53.636;10.012;2023-07-16T10:30:13;4.93;;;2.78;;
20857;SDS011;10589;53.636;10.012;2023-07-16T10:32:39;3.97;;;2.40;;
20857;SDS011;10589;53.636;10.012;2023-07-16T10:35:05;5.63;;;2.80;;
20857;SDS011;10589;53.636;10.012;2023-07-16T10:37:32;8.23;;;2.45;;
20857;SDS011;10589;53.636;10.012;2023-07-16T10:39:58;7.35;;;2.70;;
20857;SDS011;10589;53.636;10.012;2023-07-16T10:42:26;6.38;;;2.78;;
20857;SDS011;10589;53.636;10.012;2023-07-16T10:44:59;7.45;;;2.55;;
20857;SDS011;10589;53.636;10.012;2023-07-16T10:49:58;5.82;;;1.92;;
20857;SDS011;10589;53.636;10.012;2023-07-16T10:52:25;5.47;;;2.55;;
20857;SDS011;10589;53.636;10.012;2023-07-16T10:54:51;6.78;;;2.58;;
20857;SDS011;10589;53.636;10.012;2023-07-16T10:57:23;4.30;;;2.00;;
20857;SDS011;10589;53.636;10.012;2023-07-16T10:59:56;4.85;;;2.30;;
20857;SDS011;10589;53.636;10.012;2023-07-16T11:02:23;6.38;;;2.80;;
20857;SDS011;10589;53.636;10.012;2023-07-16T11:04:50;5.25;;;2.35;;
20857;SDS011;10589;53.636;10.012;2023-07-16T11:07:20;5.20;;;2.50;;
20857;SDS011;10589;53.636;10.012;2023-07-16T11:09:47;5.15;;;2.22;;
20857;SDS011;10589;53.636;10.012;2023-07-16T11:12:17;8.88;;;3.13;;
20857;SDS011;10589;53.636;10.012;2023-07-16T11:14:46;6.97;;;2.85;;
20857;SDS011;10589;53.636;10.012;2023-07-16T11:17:13;7.72;;;2.20;;
20857;SDS011;10589;53.636;10.012;2023-07-16T11:19:39;7.30;;;2.55;;
20857;SDS011;10589;53.636;10.012;2023-07-16T11:22:08;6.93;;;2.50;;
20857;SDS011;10589;53.636;10.012;2023-07-16T11:24:47;5.20;;;2.58;;
20857;SDS011;10589;53.636;10.012;2023-07-16T11:27:27;3.85;;;2.35;;
20857;SDS011;10589;53.636;10.012;2023-07-16T11:29:57;6.93;;;2.60;;
20857;SDS011;10589;53.636;10.012;2023-07-16T11:32:34;7.35;;;2.53;;
20857;SDS011;10589;53.636;10.012;2023-07-16T11:35:00;6.03;;;2.60;;
20857;SDS011;10589;53.636;10.012;2023-07-16T11:37:32;4.80;;;2.30;;
20857;SDS011;10589;53.636;10.012;2023-07-16T11:40:03;6.95;;;2.58;;
20857;SDS011;10589;53.636;10.012;2023-07-16T11:42:30;5.68;;;2.63;;
20857;SDS011;10589;53.636;10.012;2023-07-16T11:44:58;7.60;;;2.20;;
20857;SDS011;10589;53.636;10.012;2023-07-16T11:47:24;3.97;;;2.30;;
20857;SDS011;10589;53.636;10.012;2023-07-16T11:49:51;3.28;;;2.05;;
20857;SDS011;10589;53.636;10.012;2023-07-16T11:52:20;5.05;;;1.90;;
20857;SDS011;10589;53.636;10.012;2023-07-16T11:54:52;4.65;;;2.10;;
20857;SDS011;10589;53.636;10.012;2023-07-16T11:57:18;11.50;;;2.40;;
20857;SDS011;10589;53.636;10.012;2023-07-16T11:59:44;5.20;;;2.10;;
20857;SDS011;10589;53.636;10.012;2023-07-16T12:02:10;4.85;;;2.17;;
20857;SDS011;10589;53.636;10.012;2023-07-16T12:04:36;3.22;;;2.10;;
20857;SDS011;10589;53.636;10.012;2023-07-16T12:07:02;4.40;;;2.15;;
20857;SDS011;10589;53.636;10.012;2023-07-16T12:09:28;7.88;;;2.53;;
20857;SDS011;10589;53.636;10.012;2023-07-16T12:11:53;7.90;;;2.47;;
20857;SDS011;10589;53.636;10.012;2023-07-16T12:14:19;7.60;;;2.22;;
20857;SDS011;10589;53.636;10.012;2023-07-16T12:16:45;3.20;;;1.85;;
20857;SDS011;10589;53.636;10.012;2023-07-16T12:19:10;9.27;;;2.35;;
20857;SDS011;10589;53.636;10.012;2023-07-16T12:21:36;6.35;;;2.40;;
20857;SDS011;10589;53.636;10.012;2023-07-16T12:24:02;8.68;;;2.55;;
20857;SDS011;10589;53.636;10.012;2023-07-16T12:26:28;6.13;;;2.35;;
20857;SDS011;10589;53.636;10.012;2023-07-16T12:28:53;4.47;;;2.42;;
20857;SDS011;10589;53.636;10.012;2023-07-16T12:31:20;7.55;;;2.30;;
20857;SDS011;10589;53.636;10.012;2023-07-16T12:33:46;6.82;;;2.28;;
20857;SDS011;10589;53.636;10.012;2023-07-16T12:36:12;4.28;;;2.03;;
20857;SDS011;10589;53.636;10.012;2023-07-16T12:38:38;7.30;;;1.98;;
20857;SDS011;10589;53.636;10.012;2023-07-16T12:41:04;5.13;;;2.35;;
20857;SDS011;10589;53.636;10.012;2023-07-16T12:43:30;5.40;;;2.00;;
20857;SDS011;10589;53.636;10.012;2023-07-16T12:45:59;3.80;;;2.38;;
20857;SDS011;10589;53.636;10.012;2023-07-16T12:48:27;5.55;;;2.00;;
20857;SDS011;10589;53.636;10.012;2023-07-16T12:50:52;5.38;;;2.03;;
20857;SDS011;10589;53.636;10.012;2023-07-16T12:53:18;4.05;;;1.85;;
20857;SDS011;10589;53.636;10.012;2023-07-16T12:55:44;3.47;;;1.88;;
20857;SDS011;10589;53.636;10.012;2023-07-16T12:58:09;6.85;;;2.03;;
20857;SDS011;10589;53.636;10.012;2023-07-16T13:00:35;4.35;;;1.50;;
20857;SDS011;10589;53.636;10.012;2023-07-16T13:03:00;7.03;;;1.75;;
20857;SDS011;10589;53.636;10.012;2023-07-16T13:05:27;6.28;;;2.00;;
20857;SDS011;10589;53.636;10.012;2023-07-16T13:07:55;4.95;;;1.90;;
20857;SDS011;10589;53.636;10.012;2023-07-16T13:10:21;3.85;;;1.80;;
20857;SDS011;10589;53.636;10.012;2023-07-16T13:12:46;4.50;;;1.80;;
20857;SDS011;10589;53.636;10.012;2023-07-16T13:15:12;4.88;;;1.63;;
20857;SDS011;10589;53.636;10.012;2023-07-16T13:17:37;5.70;;;1.83;;
20857;SDS011;10589;53.636;10.012;2023-07-16T13:20:03;5.70;;;1.80;;
20857;SDS011;10589;53.636;10.012;2023-07-16T13:22:30;4.72;;;1.60;;
20857;SDS011;10589;53.636;10.012;2023-07-16T13:24:55;3.55;;;1.60;;
20857;SDS011;10589;53.636;10.012;2023-07-16T13:27:22;3.83;;;1.90;;
20857;SDS011;10589;53.636;10.012;2023-07-16T13:29:48;5.18;;;1.70;;
20857;SDS011;10589;53.636;10.012;2023-07-16T13:32:14;3.15;;;1.98;;
20857;SDS011;10589;53.636;10.012;2023-07-16T13:34:40;4.90;;;1.92;;
20857;SDS011;10589;53.636;10.012;2023-07-16T13:37:06;5.95;;;1.60;;
20857;SDS011;10589;53.636;10.012;2023-07-16T13:39:32;3.55;;;2.30;;
20857;SDS011;10589;53.636;10.012;2023-07-16T13:41:57;3.00;;;1.70;;
20857;SDS011;10589;53.636;10.012;2023-07-16T13:44:23;9.40;;;1.70;;
20857;SDS011;10589;53.636;10.012;2023-07-16T13:46:48;2.95;;;1.48;;
20857;SDS011;10589;53.636;10.012;2023-07-16T13:49:14;2.75;;;1.75;;
20857;SDS011;10589;53.636;10.012;2023-07-16T13:51:40;7.57;;;1.80;;
20857;SDS011;10589;53.636;10.012;2023-07-16T13:54:05;3.47;;;1.52;;
20857;SDS011;10589;53.636;10.012;2023-07-16T13:56:31;4.90;;;1.88;;
20857;SDS011;10589;53.636;10.012;2023-07-16T13:58:56;6.38;;;1.80;;
20857;SDS011;10589;53.636;10.012;2023-07-16T14:01:22;4.90;;;2.08;;
20857;SDS011;10589;53.636;10.012;2023-07-16T14:03:49;3.55;;;1.80;;
20857;SDS011;10589;53.636;10.012;2023-07-16T14:06:16;4.00;;;1.65;;
20857;SDS011;10589;53.636;10.012;2023-07-16T14:08:41;6.63;;;1.83;;
20857;SDS011;10589;53.636;10.012;2023-07-16T14:11:07;5.38;;;1.70;;
20857;SDS011;10589;53.636;10.012;2023-07-16T14:13:33;3.72;;;1.88;;
20857;SDS011;10589;53.636;10.012;2023-07-16T14:15:58;3.42;;;2.03;;
20857;SDS011;10589;53.636;10.012;2023-07-16T14:18:24;3.75;;;1.70;;
20857;SDS011;10589;53.636;10.012;2023-07-16T14:20:49;4.63;;;1.98;;
20857;SDS011;10589;53.636;10.012;2023-07-16T14:23:15;5.40;;;2.03;;
20857;SDS011;10589;53.636;10.012;2023-07-16T14:25:41;5.25;;;2.05;;
20857;SDS011;10589;53.636;10.012;2023-07-16T14:28:07;5.57;;;2.28;;
20857;SDS011;10589;53.636;10.012;2023-07-16T14:30:33;4.20;;;2.28;;
20857;SDS011;10589;53.636;10.012;2023-07-16T14:32:58;5.20;;;1.83;;
20857;SDS011;10589;53.636;10.012;2023-07-16T14:35:26;4.60;;;1.90;;
20857;SDS011;10589;53.636;10.012;2023-07-16T14:37:51;3.67;;;2.05;;
20857;SDS011;10589;53.636;10.012;2023-07-16T14:40:17;4.13;;;2.17;;
20857;SDS011;10589;53.636;10.012;2023-07-16T14:42:43;4.60;;;2.47;;
20857;SDS011;10589;53.636;10.012;2023-07-16T14:45:09;7.70;;;2.00;;
20857;SDS011;10589;53.636;10.012;2023-07-16T14:47:35;3.28;;;1.85;;
20857;SDS011;10589;53.636;10.012;2023-07-16T14:50:01;3.40;;;1.52;;
20857;SDS011;10589;53.636;10.012;2023-07-16T14:52:27;4.15;;;1.75;;
20857;SDS011;10589;53.636;10.012;2023-07-16T14:54:52;3.67;;;1.90;;
20857;SDS011;10589;53.636;10.012;2023-07-16T14:57:18;5.68;;;1.98;;
20857;SDS011;10589;53.636;10.012;2023-07-16T14:59:43;5.35;;;1.92;;
20857;SDS011;10589;53.636;10.012;2023-07-16T15:02:09;3.92;;;1.70;;
20857;SDS011;10589;53.636;10.012;2023-07-16T15:04:34;3.15;;;1.67;;
20857;SDS011;10589;53.636;10.012;2023-07-16T15:07:00;3.33;;;1.60;;
20857;SDS011;10589;53.636;10.012;2023-07-16T15:09:26;6.60;;;1.80;;
20857;SDS011;10589;53.636;10.012;2023-07-16T15:11:52;5.55;;;2.13;;
20857;SDS011;10589;53.636;10.012;2023-07-16T15:14:18;4.35;;;1.98;;
20857;SDS011;10589;53.636;10.012;2023-07-16T15:16:43;3.72;;;1.50;;
20857;SDS011;10589;53.636;10.012;2023-07-16T15:19:09;3.38;;;1.60;;
20857;SDS011;10589;53.636;10.012;2023-07-16T15:21:35;2.97;;;1.50;;
20857;SDS011;10589;53.636;10.012;2023-07-16T15:24:03;3.53;;;1.50;;
20857;SDS011;10589;53.636;10.012;2023-07-16T15:26:29;4.10;;;1.75;;
20857;SDS011;10589;53.636;10.012;2023-07-16T15:28:56;2.58;;;1.45;;
20857;SDS011;10589;53.636;10.012;2023-07-16T15:31:22;2.28;;;1.73;;
20857;SDS011;10589;53.636;10.012;2023-07-16T15:33:52;5.28;;;1.67;;
20857;SDS011;10589;53.636;10.012;2023-07-16T15:36:21;3.63;;;1.80;;
20857;SDS011;10589;53.636;10.012;2023-07-16T15:38:47;5.68;;;1.98;;
20857;SDS011;10589;53.636;10.012;2023-07-16T15:41:16;6.32;;;2.00;;
20857;SDS011;10589;53.636;10.012;2023-07-16T15:43:45;5.90;;;1.95;;
20857;SDS011;10589;53.636;10.012;2023-07-16T15:46:14;4.03;;;1.98;;
20857;SDS011;10589;53.636;10.012;2023-07-16T15:48:42;4.28;;;1.90;;
20857;SDS011;10589;53.636;10.012;2023-07-16T15:51:10;6.43;;;1.88;;
20857;SDS011;10589;53.636;10.012;2023-07-16T15:53:39;5.07;;;2.13;;
20857;SDS011;10589;53.636;10.012;2023-07-16T15:56:05;3.88;;;2.17;;
20857;SDS011;10589;53.636;10.012;2023-07-16T15:58:31;4.40;;;2.05;;
20857;SDS011;10589;53.636;10.012;2023-07-16T16:00:57;6.35;;;2.30;;
20857;SDS011;10589;53.636;10.012;2023-07-16T16:03:23;6.00;;;2.05;;
20857;SDS011;10589;53.636;10.012;2023-07-16T16:05:49;3.17;;;1.90;;
20857;SDS011;10589;53.636;10.012;2023-07-16T16:08:17;4.28;;;2.20;;
20857;SDS011;10589;53.636;10.012;2023-07-16T16:10:51;5.43;;;2.15;;
20857;SDS011;10589;53.636;10.012;2023-07-16T16:13:18;5.40;;;2.33;;
20857;SDS011;10589;53.636;10.012;2023-07-16T16:15:44;7.30;;;2.50;;
20857;SDS011;10589;53.636;10.012;2023-07-16T16:18:11;3.20;;;2.17;;
20857;SDS011;10589;53.636;10.012;2023-07-16T16:20:37;4.43;;;2.47;;
20857;SDS011;10589;53.636;10.012;2023-07-16T16:23:04;6.15;;;1.73;;
20857;SDS011;10589;53.636;10.012;2023-07-16T16:25:30;5.40;;;2.30;;
20857;SDS011;10589;53.636;10.012;2023-07-16T16:27:57;4.72;;;2.22;;
20857;SDS011;10589;53.636;10.012;2023-07-16T16:30:24;4.47;;;2.10;;
20857;SDS011;10589;53.636;10.012;2023-07-16T16:32:50;5.68;;;2.05;;
20857;SDS011;10589;53.636;10.012;2023-07-16T16:35:23;3.63;;;2.00;;
20857;SDS011;10589;53.636;10.012;2023-07-16T16:37:49;6.63;;;2.55;;
20857;SDS011;10589;53.636;10.012;2023-07-16T16:40:16;5.50;;;2.40;;
20857;SDS011;10589;53.636;10.012;2023-07-16T16:42:42;5.00;;;1.95;;
20857;SDS011;10589;53.636;10.012;2023-07-16T16:45:08;3.40;;;2.10;;
20857;SDS011;10589;53.636;10.012;2023-07-16T16:47:34;2.65;;;2.10;;
20857;SDS011;10589;53.636;10.012;2023-07-16T16:50:00;2.90;;;1.83;;
20857;SDS011;10589;53.636;10.012;2023-07-16T16:52:26;5.85;;;2.65;;
20857;SDS011;10589;53.636;10.012;2023-07-16T16:54:52;4.88;;;2.00;;
20857;SDS011;10589;53.636;10.012;2023-07-16T16:57:18;5.25;;;2.33;;
20857;SDS011;10589;53.636;10.012;2023-07-16T16:59:44;5.60;;;2.35;;
20857;SDS011;10589;53.636;10.012;2023-07-16T17:02:10;3.85;;;2.40;;
20857;SDS011;10589;53.636;10.012;2023-07-16T17:04:37;5.20;;;2.00;;
20857;SDS011;10589;53.636;10.012;2023-07-16T17:07:04;3.78;;;2.45;;
20857;SDS011;10589;53.636;10.012;2023-07-16T17:09:32;3.78;;;2.28;;
20857;SDS011;10589;53.636;10.012;2023-07-16T17:11:58;4.70;;;2.35;;
20857;SDS011;10589;53.636;10.012;2023-07-16T17:14:23;4.18;;;2.20;;
20857;SDS011;10589;53.636;10.012;2023-07-16T17:16:49;4.35;;;2.38;;
20857;SDS011;10589;53.636;10.012;2023-07-16T17:19:15;4.60;;;2.28;;
20857;SDS011;10589;53.636;10.012;2023-07-16T17:21:41;8.20;;;2.45;;
20857;SDS011;10589;53.636;10.012;2023-07-16T17:24:07;4.10;;;2.47;;
20857;SDS011;10589;53.636;10.012;2023-07-16T17:26:36;6.28;;;1.85;;
20857;SDS011;10589;53.636;10.012;2023-07-16T17:29:05;5.47;;;2.13;;
20857;SDS011;10589;53.636;10.012;2023-07-16T17:31:31;3.35;;;2.10;;
20857;SDS011;10589;53.636;10.012;2023-07-16T17:33:58;4.50;;;2.35;;
20857;SDS011;10589;53.636;10.012;2023-07-16T17:36:24;4.50;;;2.30;;
20857;SDS011;10589;53.636;10.012;2023-07-16T17:38:50;10.07;;;2.60;;
20857;SDS011;10589;53.636;10.012;2023-07-16T17:41:15;5.40;;;2.60;;
20857;SDS011;10589;53.636;10.012;2023-07-16T17:43:41;5.40;;;2.25;;
20857;SDS011;10589;53.636;10.012;2023-07-16T17:46:06;4.22;;;2.33;;
20857;SDS011;10589;53.636;10.012;2023-07-16T17:48:32;4.30;;;2.15;;
20857;SDS011;10589;53.636;10.012;2023-07-16T17:50:58;3.15;;;2.13;;
20857;SDS011;10589;53.636;10.012;2023-07-16T17:53:23;5.63;;;2.38;;
20857;SDS011;10589;53.636;10.012;2023-07-16T17:55:49;3.70;;;2.00;;
20857;SDS011;10589;53.636;10.012;2023-07-16T17:58:17;4.70;;;2.00;;
20857;SDS011;10589;53.636;10.012;2023-07-16T18:00:42;3.90;;;2.25;;
20857;SDS011;10589;53.636;10.012;2023-07-16T18:03:08;3.10;;;2.05;;
20857;SDS011;10589;53.636;10.012;2023-07-16T18:05:34;3.45;;;2.35;;
20857;SDS011;10589;53.636;10.012;2023-07-16T18:07:59;5.13;;;2.10;;
20857;SDS011;10589;53.636;10.012;2023-07-16T18:10:25;3.72;;;2.17;;
20857;SDS011;10589;53.636;10.012;2023-07-16T18:12:52;7.88;;;2.78;;
20857;SDS011;10589;53.636;10.012;2023-07-16T18:15:17;3.28;;;2.10;;
20857;SDS011;10589;53.636;10.012;2023-07-16T18:17:43;5.53;;;2.30;;
20857;SDS011;10589;53.636;10.012;2023-07-16T18:20:12;4.10;;;2.13;;